Terminal Aerodrome Forecast
Issued by NWS

Home | Current Version | Previous Version | Text Only | Print | Product List | Glossary On
Versions: 1 2 3 4 5 6 7 8 9 10 11 12 13
000
FTUS43 KEAX 251720
TAFSTJ
TAF
KSTJ 251720Z 2518/2618 18007KT P6SM SCT150 BKN200
     FM260100 VRB04KT P6SM -SHRA VCTS OVC030CB
      TEMPO 2609/2613 4SM BR OVC015
     FM261500 35005KT P6SM OVC020=

USA.gov is the U.S. government's official web portal to all federal, state and local government web resources and services.